Time;durP1;ratioP1;P1;durP2;ratioP2;P2;SDS_P1;SDS_P2;PMS_P1;PMS_P2;Temp;Humidity;BMP_temperature;BMP_pressure;BME280_temperature;BME280_humidity;BME280_pressure;Samples;Min_cycle;Max_cycle;Signal;HPM_P1;HPM_P2
2021/10/08 00:01:28;;;;;;;8.80;6.55;;;;;;;13.66;97.62;101648.06;6219197;23;20008;-73
2021/10/08 00:03:54;;;;;;;11.50;7.25;;;;;;;13.60;97.49;101648.06;6193590;23;20004;-73
2021/10/08 00:06:20;;;;;;;9.18;6.20;;;;;;;13.57;97.73;101654.22;6193149;23;20490;-73
2021/10/08 00:08:45;;;;;;;9.20;6.18;;;;;;;13.55;97.17;101644.47;6143720;23;20009;-73
2021/10/08 00:11:11;;;;;;;12.80;6.10;;;;;;;13.51;97.36;101648.94;6219950;23;20055;-73
2021/10/08 00:13:36;;;;;;;9.50;6.15;;;;;;;13.48;97.35;101641.97;6193126;23;20016;-73
2021/10/08 00:16:02;;;;;;;7.82;6.30;;;;;;;13.43;96.94;101642.03;6192942;23;20012;-73
2021/10/08 00:18:28;;;;;;;8.90;5.80;;;;;;;13.40;96.92;101648.19;6219597;23;20012;-73
2021/10/08 00:20:53;;;;;;;7.78;5.25;;;;;;;13.37;96.32;101643.13;6192696;23;20019;-73
2021/10/08 00:23:19;;;;;;;8.07;5.22;;;;;;;13.33;96.06;101648.47;6193283;23;20024;-73
2021/10/08 00:25:44;;;;;;;8.15;5.28;;;;;;;13.27;96.27;101644.03;6167554;23;20032;-73
2021/10/08 00:28:10;;;;;;;9.15;5.80;;;;;;;13.25;96.68;101654.59;6168426;23;20038;-73
2021/10/08 00:30:35;;;;;;;8.45;6.18;;;;;;;13.21;97.12;101652.69;6192685;23;20188;-73
2021/10/08 00:33:01;;;;;;;9.25;6.07;;;;;;;13.16;96.66;101648.78;6192650;23;20009;-73
2021/10/08 00:35:27;;;;;;;7.80;5.72;;;;;;;13.12;97.04;101647.69;6193089;23;20488;-73
2021/10/08 00:37:53;;;;;;;8.95;5.50;;;;;;;13.10;97.12;101641.53;6192434;23;20000;-73
2021/10/08 00:40:19;;;;;;;9.32;5.55;;;;;;;13.07;96.97;101646.88;6192952;23;20422;-73
2021/10/08 00:42:46;;;;;;;8.35;5.63;;;;;;;13.02;97.08;101642.13;6193186;23;20009;-73
2021/10/08 00:45:11;;;;;;;8.10;5.70;;;;;;;12.98;96.81;101646.56;6168237;23;20694;-73
2021/10/08 00:47:37;;;;;;;10.55;5.90;;;;;;;12.96;97.25;101648.84;6192351;23;20076;-73
2021/10/08 00:50:07;;;;;;;7.45;5.13;;;;;;;12.93;97.26;101650.25;6193038;23;20008;-73
2021/10/08 00:52:32;;;;;;;11.32;5.90;;;;;;;12.89;97.25;101654.69;6168587;23;20076;-73
2021/10/08 00:54:57;;;;;;;10.10;5.85;;;;;;;12.89;98.20;101648.28;6217915;23;20068;-73
2021/10/08 00:57:23;;;;;;;11.80;6.22;;;;;;;12.89;97.93;101648.28;6193101;23;20016;-73
2021/10/08 00:59:49;;;;;;;7.22;5.18;;;;;;;12.86;98.03;101644.09;6168024;23;20012;-73
2021/10/08 01:02:14;;;;;;;8.68;5.38;;;;;;;12.88;98.42;101649.41;6167709;23;20143;-73
2021/10/08 01:04:40;;;;;;;8.90;5.60;;;;;;;12.87;98.57;101639.34;6167987;23;20008;-73
2021/10/08 01:07:05;;;;;;;9.70;5.75;;;;;;;12.87;98.84;101650.50;6192234;23;20311;-73
2021/10/08 01:09:31;;;;;;;9.68;5.80;;;;;;;12.85;99.09;101642.44;6219404;23;20008;-73
2021/10/08 01:11:56;;;;;;;10.05;6.00;;;;;;;12.86;99.28;101654.44;6218796;23;20011;-73
2021/10/08 01:14:22;;;;;;;9.80;5.60;;;;;;;12.87;99.06;101644.94;6192533;23;20012;-73
2021/10/08 01:16:47;;;;;;;9.55;5.47;;;;;;;12.86;98.95;101637.69;6192388;23;20011;-73
2021/10/08 01:19:13;;;;;;;10.50;5.40;;;;;;;12.86;99.04;101641.31;6192454;23;20016;-73
2021/10/08 01:21:38;;;;;;;10.05;5.40;;;;;;;12.88;99.42;101643.84;6192886;23;20012;-73
2021/10/08 01:24:04;;;;;;;8.07;5.05;;;;;;;12.89;99.20;101645.50;6218689;23;20020;-73
2021/10/08 01:26:29;;;;;;;8.02;4.53;;;;;;;12.89;99.13;101642.72;6191993;23;20073;-73
2021/10/08 01:28:55;;;;;;;8.27;5.20;;;;;;;12.88;98.83;101641.88;6192694;23;20311;-73
2021/10/08 01:31:20;;;;;;;8.20;4.70;;;;;;;12.89;99.02;101639.91;6167475;23;20429;-73
2021/10/08 01:33:46;;;;;;;7.55;4.97;;;;;;;12.91;99.05;101648.84;6192264;23;20004;-73
2021/10/08 01:36:11;;;;;;;7.45;4.30;;;;;;;12.91;99.00;101646.06;6192432;23;20466;-74
2021/10/08 01:38:37;;;;;;;7.78;4.97;;;;;;;12.91;98.96;101649.69;6218526;23;20005;-73
2021/10/08 01:41:02;;;;;;;6.57;3.90;;;;;;;12.92;98.98;101648.53;6192665;23;20009;-73
2021/10/08 01:43:28;;;;;;;11.02;4.68;;;;;;;12.92;99.38;101648.53;6192519;23;20015;-73
2021/10/08 01:45:53;;;;;;;7.35;4.68;;;;;;;12.93;98.89;101653.03;6218628;23;20005;-73
2021/10/08 01:48:19;;;;;;;9.38;4.65;;;;;;;12.94;98.68;101654.69;6192642;23;20008;-73
2021/10/08 01:50:44;;;;;;;7.93;3.95;;;;;;;12.93;98.46;101647.44;6218430;23;20303;-73
2021/10/08 01:53:10;;;;;;;10.18;3.90;;;;;;;12.94;98.00;101651.91;6192318;23;20035;-73
2021/10/08 01:55:36;;;;;;;10.90;4.85;;;;;;;12.93;98.62;101650.25;6218698;23;20001;-73
2021/10/08 01:58:01;;;;;;;8.43;5.18;;;;;;;12.91;98.48;101651.63;6191467;23;20005;-73
2021/10/08 02:00:27;;;;;;;7.93;4.32;;;;;;;12.89;98.16;101648.28;6218718;23;20005;-73
2021/10/08 02:02:52;;;;;;;10.57;5.18;;;;;;;12.87;100.00;101645.78;6167237;23;20020;-73
2021/10/08 02:05:18;;;;;;;9.13;4.80;;;;;;;12.87;99.59;101642.16;6192190;23;20011;-74
2021/10/08 02:07:47;;;;;;;8.60;4.25;;;;;;;12.88;99.13;101646.63;6167683;23;20009;-74
2021/10/08 02:10:12;;;;;;;9.25;4.28;;;;;;;12.89;98.99;101645.50;6218251;23;20004;-74
2021/10/08 02:12:38;;;;;;;12.57;4.57;;;;;;;12.90;98.48;101645.22;6191990;23;20013;-74
2021/10/08 02:15:04;;;;;;;7.15;3.50;;;;;;;12.90;98.51;101647.19;6218852;23;20063;-74
2021/10/08 02:17:29;;;;;;;6.70;3.65;;;;;;;12.90;98.44;101644.41;6191208;23;20015;-74
2021/10/08 02:19:54;;;;;;;8.13;3.63;;;;;;;12.90;98.01;101641.63;6142835;23;20012;-74
2021/10/08 02:22:20;;;;;;;6.25;3.63;;;;;;;12.90;98.28;101636.88;6218408;23;20019;-74
2021/10/08 02:24:45;;;;;;;6.93;3.25;;;;;;;12.90;97.98;101642.44;6191895;23;20009;-74
2021/10/08 02:27:11;;;;;;;5.53;3.17;;;;;;;12.89;97.55;101645.50;6218762;23;20059;-74
2021/10/08 02:29:36;;;;;;;7.22;3.40;;;;;;;12.89;97.84;101642.72;6191662;23;20016;-74
2021/10/08 02:32:02;;;;;;;8.77;3.55;;;;;;;12.89;97.77;101643.53;6218228;23;20418;-74
2021/10/08 02:34:29;;;;;;;7.18;3.00;;;;;;;12.90;97.43;101639.66;6191851;23;20088;-74
2021/10/08 02:36:54;;;;;;;6.55;2.90;;;;;;;12.90;97.82;101641.63;6218114;23;20012;-74
2021/10/08 02:39:20;;;;;;;7.53;3.25;;;;;;;12.89;97.32;101639.91;6217339;23;20008;-74
2021/10/08 02:41:46;;;;;;;5.43;2.90;;;;;;;12.89;97.10;101637.13;6191601;23;20009;-74
2021/10/08 02:44:11;;;;;;;6.60;3.13;;;;;;;12.88;97.42;101641.88;6218392;23;20015;-73
2021/10/08 02:46:37;;;;;;;5.22;3.22;;;;;;;12.89;97.20;101637.13;6218266;23;20008;-73
2021/10/08 02:49:02;;;;;;;7.80;3.30;;;;;;;12.87;97.05;101633.78;6166718;23;20657;-73
2021/10/08 02:51:28;;;;;;;7.13;3.35;;;;;;;12.85;96.84;101633.25;6167108;23;20161;-73
2021/10/08 02:53:53;;;;;;;8.50;3.72;;;;;;;12.82;97.71;101636.59;6218549;23;20475;-73
2021/10/08 02:56:19;;;;;;;6.22;3.10;;;;;;;12.81;96.47;101640.50;6166543;23;20016;-73
2021/10/08 02:58:44;;;;;;;7.88;3.47;;;;;;;12.78;96.33;101636.31;6218488;23;20011;-73
2021/10/08 03:01:10;;;;;;;6.35;2.88;;;;;;;12.81;97.19;101630.16;6218853;23;20005;-73
2021/10/08 03:03:35;;;;;;;5.53;3.00;;;;;;;12.80;97.24;101633.25;6220206;23;20004;-73
2021/10/08 03:06:01;;;;;;;6.55;3.05;;;;;;;12.78;96.77;101633.53;6169164;23;20326;-74
2021/10/08 03:08:26;;;;;;;5.80;2.90;;;;;;;12.75;97.43;101634.09;6220795;23;20015;-73
2021/10/08 03:10:52;;;;;;;8.35;3.00;;;;;;;12.74;97.46;101627.69;6168809;23;20009;-73
2021/10/08 03:13:17;;;;;;;8.98;3.00;;;;;;;12.73;97.54;101633.53;6193750;23;20009;-73
2021/10/08 03:15:43;;;;;;;8.80;3.53;;;;;;;12.73;97.29;101633.53;6218630;23;20008;-73
2021/10/08 03:18:08;;;;;;;6.30;2.80;;;;;;;12.71;97.35;101630.22;6193365;23;20422;-73
2021/10/08 03:20:34;;;;;;;6.05;2.80;;;;;;;12.71;97.60;101630.22;6194170;23;20068;-73
2021/10/08 03:22:59;;;;;;;6.28;3.17;;;;;;;12.69;98.02;101627.69;6193412;23;20024;-73
2021/10/08 03:25:25;;;;;;;4.85;2.65;;;;;;;12.69;97.29;101624.06;6219939;23;20055;-73
2021/10/08 03:27:50;;;;;;;5.03;2.95;;;;;;;12.69;97.39;101627.69;6193820;23;20005;-73
2021/10/08 03:30:16;;;;;;;5.90;2.80;;;;;;;12.68;97.63;101628.00;6192940;23;20005;-73
2021/10/08 03:32:42;;;;;;;6.13;3.00;;;;;;;12.69;97.60;101627.69;6193744;23;20005;-73
2021/10/08 03:35:08;;;;;;;4.57;2.67;;;;;;;12.68;97.55;101633.56;6193298;23;20032;-73
2021/10/08 03:40:16;;;;;;;4.93;2.72;;;;;;;12.64;97.38;101626.88;6220169;23;20005;-73
2021/10/08 03:42:42;;;;;;;8.63;3.00;;;;;;;12.60;96.32;101626.59;6146237;23;20004;-73
2021/10/08 03:45:14;;;;;;;7.00;2.72;;;;;;;12.62;97.26;101635.53;6168045;23;20012;-73
2021/10/08 03:47:55;;;;;;;7.77;2.77;;;;;;;12.63;97.05;101636.34;6220621;23;20009;-73
2021/10/08 03:50:20;;;;;;;3.70;2.30;;;;;;;12.61;96.97;101636.63;6196572;23;20234;-73
2021/10/08 03:52:46;;;;;;;7.15;2.30;;;;;;;12.61;96.67;101639.41;6219826;23;20008;-73
2021/10/08 03:55:11;;;;;;;5.47;2.25;;;;;;;12.60;96.82;101642.50;6193533;23;20009;-73
2021/10/08 03:57:37;;;;;;;5.47;2.47;;;;;;;12.62;97.18;101648.59;6192861;23;20008;-73
2021/10/08 04:00:04;;;;;;;4.25;2.60;;;;;;;12.60;96.98;101650.84;6218457;23;20327;-74
2021/10/08 04:02:29;;;;;;;5.88;2.63;;;;;;;12.58;97.38;101647.50;6193230;23;20071;-73
2021/10/08 04:04:55;;;;;;;8.88;2.80;;;;;;;12.55;97.28;101648.91;6219588;23;20008;-73
2021/10/08 04:07:20;;;;;;;5.25;2.60;;;;;;;12.53;96.83;101651.94;6220019;23;20016;-75
2021/10/08 04:09:46;;;;;;;7.10;3.30;;;;;;;12.51;96.08;101647.78;6219472;23;20009;-73
2021/10/08 04:12:11;;;;;;;3.60;2.60;;;;;;;12.51;95.98;101647.78;6217671;23;20019;-74
2021/10/08 04:14:37;;;;;;;6.32;2.88;;;;;;;12.48;96.39;101643.63;6219785;23;20009;-73
2021/10/08 04:17:02;;;;;;;5.15;2.83;;;;;;;12.47;96.75;101643.88;6192731;23;20031;-74
2021/10/08 04:19:29;;;;;;;8.32;3.28;;;;;;;12.44;96.89;101644.44;6168526;23;20001;-73
2021/10/08 04:21:55;;;;;;;5.18;3.00;;;;;;;12.40;97.02;101646.97;6193184;23;20144;-74
2021/10/08 04:24:20;;;;;;;5.93;2.38;;;;;;;12.39;96.70;101645.25;6193266;23;20012;-74
2021/10/08 04:26:46;;;;;;;4.85;2.40;;;;;;;12.35;96.09;101643.34;6168438;23;20008;-74
2021/10/08 04:29:11;;;;;;;4.05;2.28;;;;;;;12.33;95.73;101642.78;6168222;23;20000;-73
2021/10/08 04:31:37;;;;;;;8.27;2.50;;;;;;;12.30;96.02;101635.81;6218099;23;20004;-73
2021/10/08 04:34:02;;;;;;;7.40;2.47;;;;;;;12.26;96.19;101643.88;6192965;23;20058;-73
2021/10/08 04:36:28;;;;;;;5.95;2.53;;;;;;;12.23;95.94;101646.38;6219129;23;20434;-73
2021/10/08 04:38:53;;;;;;;6.80;2.80;;;;;;;12.18;95.84;101650.00;6193218;23;20433;-74
2021/10/08 04:41:19;;;;;;;3.75;2.60;;;;;;;12.11;96.03;101643.88;6192798;23;20016;-74
2021/10/08 04:43:44;;;;;;;7.55;2.70;;;;;;;12.11;95.96;101643.88;6219288;23;20009;-74
2021/10/08 04:46:10;;;;;;;8.40;3.10;;;;;;;12.08;96.27;101647.19;6192996;23;20032;-74
2021/10/08 04:48:35;;;;;;;6.00;2.60;;;;;;;12.02;96.08;101648.31;6167790;23;20011;-74
2021/10/08 04:51:01;;;;;;;9.65;2.85;;;;;;;11.99;96.23;101652.47;6219486;23;20012;-73
2021/10/08 04:53:26;;;;;;;5.68;2.60;;;;;;;11.95;96.14;101647.72;6168348;23;20008;-73
2021/10/08 04:55:52;;;;;;;4.90;2.70;;;;;;;11.90;96.16;101653.31;6167616;23;20009;-73
2021/10/08 04:58:17;;;;;;;5.60;2.90;;;;;;;11.87;96.00;101653.84;6168538;23;20035;-73
2021/10/08 05:00:43;;;;;;;3.92;2.60;;;;;;;11.79;96.43;101653.25;6218900;23;20029;-73
2021/10/08 05:03:09;;;;;;;7.25;3.10;;;;;;;11.77;96.21;101657.41;6192872;23;20066;-73
2021/10/08 05:05:34;;;;;;;6.20;2.72;;;;;;;11.68;96.49;101648.78;6193247;23;20000;-73
2021/10/08 05:08:00;;;;;;;5.22;2.65;;;;;;;11.65;96.47;101651.28;6143098;23;20055;-68
2021/10/08 05:10:26;;;;;;;7.18;3.50;;;;;;;11.64;96.54;101653.19;6167703;23;20009;-72
2021/10/08 05:12:51;;;;;;;6.22;2.90;;;;;;;11.57;96.79;101655.41;6168186;23;20032;-72
2021/10/08 05:15:17;;;;;;;4.90;3.10;;;;;;;11.57;96.60;101649.84;6191787;23;20009;-73
2021/10/08 05:17:42;;;;;;;6.78;2.83;;;;;;;11.53;96.61;101649.56;6167974;23;20009;-72
2021/10/08 05:20:08;;;;;;;5.90;2.65;;;;;;;11.50;96.24;101647.31;6192702;23;20322;-72
2021/10/08 05:22:34;;;;;;;6.78;3.00;;;;;;;11.47;96.57;101645.06;6192249;23;20071;-72
2021/10/08 05:24:59;;;;;;;6.43;2.78;;;;;;;11.43;96.50;101641.16;6219182;23;20012;-72
2021/10/08 05:27:25;;;;;;;6.82;3.08;;;;;;;11.39;96.81;101643.66;6192082;23;20091;-69
2021/10/08 05:29:50;;;;;;;7.75;3.22;;;;;;;11.36;96.81;101643.34;6219131;23;20008;-68
2021/10/08 05:32:16;;;;;;;8.70;3.20;;;;;;;11.33;97.47;101655.03;6192214;23;20398;-68
2021/10/08 05:34:41;;;;;;;9.52;3.42;;;;;;;11.29;97.59;101646.41;6218699;23;20015;-68
2021/10/08 05:37:07;;;;;;;8.43;3.15;;;;;;;11.25;97.61;101648.03;6219231;23;20012;-68
2021/10/08 05:39:32;;;;;;;8.63;3.38;;;;;;;11.23;97.77;101650.28;6218737;23;20062;-68
2021/10/08 05:41:57;;;;;;;8.13;3.30;;;;;;;11.17;97.90;101649.41;6218696;23;20016;-68
2021/10/08 05:44:23;;;;;;;7.35;2.88;;;;;;;11.17;97.67;101651.31;6143498;23;20524;-68
2021/10/08 05:46:48;;;;;;;6.35;3.30;;;;;;;11.13;97.66;101653.81;6166945;23;20059;-68
2021/10/08 05:49:14;;;;;;;6.55;3.50;;;;;;;11.10;97.63;101648.81;6167803;23;20012;-68
2021/10/08 05:51:39;;;;;;;6.70;3.30;;;;;;;11.08;97.53;101650.19;6142899;23;20005;-68
2021/10/08 05:54:05;;;;;;;7.80;3.38;;;;;;;11.02;97.41;101654.88;6167137;23;20013;-68
2021/10/08 05:56:30;;;;;;;6.93;3.25;;;;;;;11.00;97.19;101661.81;6219253;23;20005;-68
2021/10/08 05:58:56;;;;;;;4.85;2.92;;;;;;;11.00;97.02;101667.38;6192187;23;20008;-68
2021/10/08 06:01:21;;;;;;;5.97;2.80;;;;;;;10.98;97.14;101664.00;6191572;23;20009;-68
2021/10/08 06:03:47;;;;;;;10.05;3.10;;;;;;;10.93;97.10;101662.06;6167632;23;20011;-68
2021/10/08 06:06:12;;;;;;;7.18;2.80;;;;;;;10.89;97.03;101661.75;6191699;23;20369;-67
2021/10/08 06:08:38;;;;;;;7.32;2.42;;;;;;;10.85;97.12;101670.88;6167582;23;20096;-68
2021/10/08 06:11:03;;;;;;;6.07;3.00;;;;;;;10.83;97.39;101667.53;6192409;23;20437;-71
2021/10/08 06:13:29;;;;;;;5.95;3.00;;;;;;;10.82;98.02;101666.69;6118285;23;20025;-70
2021/10/08 06:15:54;;;;;;;5.43;2.90;;;;;;;10.82;98.81;101677.00;6192022;23;20012;-72
2021/10/08 06:18:20;;;;;;;5.22;2.90;;;;;;;10.83;99.33;101673.91;6192199;23;20005;-68
2021/10/08 06:20:45;;;;;;;7.00;3.28;;;;;;;10.81;99.25;101673.38;6219102;23;20009;-68
2021/10/08 06:23:11;;;;;;;6.97;3.45;;;;;;;10.81;99.00;101673.38;6191979;23;20029;-68
2021/10/08 06:25:36;;;;;;;5.05;2.90;;;;;;;10.78;98.74;101673.06;6142178;23;20008;-68
2021/10/08 06:28:02;;;;;;;8.32;3.90;;;;;;;10.74;98.82;101673.59;6167756;23;20015;-69
2021/10/08 06:30:27;;;;;;;11.30;3.72;;;;;;;10.73;98.75;101674.69;6142395;23;20040;-68
2021/10/08 06:32:54;;;;;;;9.60;3.60;;;;;;;10.72;98.79;101684.13;6166789;23;20499;-69
2021/10/08 06:35:19;;;;;;;8.80;3.90;;;;;;;10.70;98.52;101685.53;6142654;23;20016;-68
2021/10/08 06:37:45;;;;;;;5.80;3.63;;;;;;;10.66;98.62;101682.41;6166946;23;20004;-67
2021/10/08 06:40:11;;;;;;;8.60;3.72;;;;;;;10.65;98.65;101688.25;6167211;23;20032;-68
2021/10/08 06:42:36;;;;;;;7.53;3.60;;;;;;;10.65;98.47;101691.03;6167329;23;20009;-67
2021/10/08 06:45:02;;;;;;;7.45;2.72;;;;;;;10.62;98.29;101684.06;6166726;23;20028;-67
2021/10/08 06:47:28;;;;;;;10.00;3.40;;;;;;;10.66;98.37;101685.19;6167455;23;20500;-67
2021/10/08 06:49:53;;;;;;;6.45;3.47;;;;;;;10.63;98.76;101691.28;6166848;23;20016;-68
2021/10/08 06:52:19;;;;;;;11.32;3.80;;;;;;;10.64;98.75;101689.34;6166944;23;20023;-68
2021/10/08 06:54:44;;;;;;;10.07;3.35;;;;;;;10.64;99.00;101694.91;6167705;23;20005;-67
2021/10/08 06:57:10;;;;;;;8.60;3.35;;;;;;;10.68;98.69;101698.84;6191348;23;20005;-67
2021/10/08 06:59:35;;;;;;;7.60;3.40;;;;;;;10.71;98.77;101689.97;6142705;23;20011;-68
2021/10/08 07:02:01;;;;;;;7.97;3.28;;;;;;;10.70;99.01;101691.91;6166587;23;20008;-68
2021/10/08 07:04:26;;;;;;;8.82;3.05;;;;;;;10.75;98.91;101693.88;6139402;23;20008;-68
2021/10/08 07:06:52;;;;;;;6.45;2.83;;;;;;;10.79;98.50;101703.38;6164833;23;20422;-67
2021/10/08 07:09:17;;;;;;;7.63;3.42;;;;;;;10.83;98.32;101701.72;6164650;23;20016;-68
2021/10/08 07:11:43;;;;;;;7.20;3.33;;;;;;;10.86;98.11;101701.19;6140175;23;20013;-67
2021/10/08 07:14:08;;;;;;;4.60;2.83;;;;;;;10.90;98.11;101695.94;6165166;23;20013;-68
2021/10/08 07:16:34;;;;;;;7.88;2.90;;;;;;;10.94;97.97;101697.91;6115207;23;20005;-67
2021/10/08 07:19:11;;;;;;;6.53;3.00;;;;;;;11.01;97.92;101700.47;6140446;23;20066;-68
2021/10/08 07:21:36;;;;;;;6.05;2.88;;;;;;;11.08;98.22;101706.59;6169652;23;20008;-68
2021/10/08 07:24:02;;;;;;;5.85;3.15;;;;;;;11.14;98.15;101707.47;6164206;23;20032;-67
2021/10/08 07:26:30;;;;;;;8.70;3.38;;;;;;;11.23;98.94;101699.47;6140539;23;20004;-68
2021/10/08 07:28:56;;;;;;;7.22;3.20;;;;;;;11.32;98.72;101707.03;6141879;23;20015;-68
2021/10/08 07:31:21;;;;;;;7.63;3.53;;;;;;;11.42;99.11;101706.25;6141463;23;20009;-68
2021/10/08 07:33:47;;;;;;;7.07;3.85;;;;;;;11.54;99.13;101711.59;6167211;23;20009;-68
2021/10/08 07:36:12;;;;;;;6.88;3.03;;;;;;;11.67;99.13;101708.28;6142061;23;20008;-68
2021/10/08 07:38:38;;;;;;;7.28;3.47;;;;;;;11.76;98.91;101714.19;6142569;23;20008;-68
2021/10/08 07:41:04;;;;;;;8.40;3.58;;;;;;;11.89;98.63;101715.66;6167052;23;20009;-68
2021/10/08 07:43:31;;;;;;;6.32;3.35;;;;;;;11.99;99.53;101713.75;6166693;23;20032;-67
2021/10/08 07:45:57;;;;;;;7.30;3.08;;;;;;;12.10;98.77;101709.03;6191644;23;20673;-67
2021/10/08 07:48:22;;;;;;;6.82;3.20;;;;;;;12.21;99.09;101715.47;6193083;23;20008;-68
2021/10/08 07:50:48;;;;;;;8.73;3.25;;;;;;;12.34;98.50;101719.66;6168618;23;20334;-67
2021/10/08 07:53:13;;;;;;;7.70;3.50;;;;;;;12.43;98.09;101721.63;6168912;23;20015;-67
2021/10/08 07:55:39;;;;;;;7.82;3.63;;;;;;;12.53;97.93;101718.81;6168156;23;20020;-67
2021/10/08 07:58:04;;;;;;;6.97;3.53;;;;;;;12.64;97.37;101719.66;6168764;23;20835;-67
2021/10/08 08:00:30;;;;;;;8.20;3.25;;;;;;;12.72;96.74;101726.63;6193227;23;20016;-68
2021/10/08 08:02:55;;;;;;;10.25;3.45;;;;;;;12.80;96.67;101731.66;6192391;23;20008;-67
2021/10/08 08:05:21;;;;;;;8.45;2.90;;;;;;;12.89;96.54;101715.19;6193177;23;20008;-67
2021/10/08 08:07:48;;;;;;;5.90;3.17;;;;;;;12.98;96.82;101724.66;6193170;23;20005;-67
2021/10/08 08:10:13;;;;;;;8.60;3.40;;;;;;;13.05;96.06;101722.44;6168793;23;20067;-67
2021/10/08 08:12:39;;;;;;;5.97;2.90;;;;;;;13.14;96.08;101717.13;6168733;23;20013;-68
2021/10/08 08:15:05;;;;;;;7.70;3.55;;;;;;;13.21;96.35;101719.63;6167856;23;20005;-67
2021/10/08 08:17:30;;;;;;;11.75;3.65;;;;;;;13.29;95.90;101710.69;6193153;23;20004;-67
2021/10/08 08:19:56;;;;;;;6.25;3.63;;;;;;;13.35;95.65;101717.94;6193229;23;20005;-68
2021/10/08 08:22:21;;;;;;;10.68;4.18;;;;;;;13.40;96.31;101709.56;6167760;23;20024;-67
2021/10/08 08:24:47;;;;;;;9.77;4.57;;;;;;;13.47;95.96;101712.88;6168719;23;20067;-68
2021/10/08 08:27:12;;;;;;;9.43;4.97;;;;;;;13.57;95.62;101709.22;6168218;23;20005;-67
2021/10/08 08:29:39;;;;;;;8.13;4.28;;;;;;;13.66;95.56;101712.25;6168230;23;20319;-68
2021/10/08 08:32:04;;;;;;;10.25;4.28;;;;;;;13.77;95.22;101713.88;6143497;23;20030;-67
2021/10/08 08:34:30;;;;;;;10.70;4.20;;;;;;;13.90;94.89;101710.47;6192701;23;20005;-67
2021/10/08 08:36:55;;;;;;;10.82;4.72;;;;;;;14.02;95.08;101702.56;6168186;23;20005;-68
2021/10/08 08:39:21;;;;;;;8.93;3.17;;;;;;;14.18;94.94;101705.25;6168318;23;20008;-68
2021/10/08 08:41:47;;;;;;;8.65;4.90;;;;;;;14.29;94.37;101704.06;6192471;23;20012;-68
2021/10/08 08:44:13;;;;;;;10.73;5.38;;;;;;;14.35;93.93;101702.91;6168118;23;20015;-67
2021/10/08 08:46:39;;;;;;;10.93;4.93;;;;;;;14.45;93.42;101702.81;6167995;23;20058;-67
2021/10/08 08:49:04;;;;;;;11.93;4.93;;;;;;;14.53;93.57;101698.59;6167625;23;20015;-68
2021/10/08 08:51:31;;;;;;;10.00;5.30;;;;;;;14.64;93.34;101703.00;6168359;23;20027;-68
2021/10/08 08:54:06;;;;;;;10.05;4.50;;;;;;;14.76;92.58;101697.00;6168090;23;20032;-68
2021/10/08 08:56:32;;;;;;;9.60;4.55;;;;;;;14.87;91.77;101693.00;6144963;23;20008;-68
2021/10/08 08:58:59;;;;;;;9.77;4.68;;;;;;;15.03;92.43;101685.28;6143629;23;20392;-68
2021/10/08 09:01:25;;;;;;;9.60;4.25;;;;;;;15.19;92.25;101691.56;6167487;23;20434;-68
2021/10/08 09:04:05;;;;;;;11.63;5.93;;;;;;;15.29;91.71;101685.00;6143192;23;20080;-68
2021/10/08 09:06:40;;;;;;;8.18;4.65;;;;;;;15.37;90.95;101685.19;6119206;23;20005;-68
2021/10/08 09:09:18;;;;;;;11.25;4.90;;;;;;;15.52;91.04;101683.34;6167696;23;20008;-67
2021/10/08 09:11:45;;;;;;;11.18;5.82;;;;;;;15.59;90.34;101681.00;6167826;23;20008;-68
2021/10/08 09:14:20;;;;;;;13.95;5.78;;;;;;;15.70;89.57;101687.34;6167871;23;20015;-68
2021/10/08 09:17:18;;;;;;;11.07;5.00;;;;;;;15.81;88.74;101680.47;6167719;23;20780;-68
2021/10/08 09:19:43;;;;;;;9.55;4.80;;;;;;;15.92;87.70;101683.97;6193680;23;20063;-68
2021/10/08 09:22:08;;;;;;;11.40;4.38;;;;;;;16.08;88.38;101683.44;6217520;23;20013;-68
2021/10/08 09:24:34;;;;;;;11.02;5.40;;;;;;;16.16;87.10;101681.94;6143127;23;20020;-68
2021/10/08 09:27:09;;;;;;;11.63;5.63;;;;;;;16.26;87.15;101675.31;6192672;23;20005;-68
2021/10/08 09:29:35;;;;;;;10.60;4.45;;;;;;;16.40;87.17;101676.22;6143023;23;20330;-68
2021/10/08 09:32:01;;;;;;;12.98;5.15;;;;;;;16.54;87.51;101679.91;6166985;23;20039;-68
2021/10/08 09:34:26;;;;;;;9.68;5.50;;;;;;;16.65;86.15;101679.72;6167742;23;20008;-68
2021/10/08 09:36:57;;;;;;;11.15;5.38;;;;;;;16.70;84.42;101683.28;6190977;23;20015;-68
2021/10/08 09:39:33;;;;;;;11.30;4.68;;;;;;;16.82;83.65;101676.38;6144850;23;20015;-68
2021/10/08 09:42:02;;;;;;;6.93;3.85;;;;;;;16.84;82.50;101683.34;6168324;23;20460;-68
2021/10/08 09:44:29;;;;;;;8.43;4.00;;;;;;;16.95;82.06;101689.63;6167170;23;20426;-68
2021/10/08 09:47:11;;;;;;;8.23;3.50;;;;;;;17.00;79.97;101671.88;6142649;23;20040;-68
2021/10/08 09:49:37;;;;;;;5.28;3.30;;;;;;;17.18;78.21;101676.53;6143969;23;20005;-68
2021/10/08 09:52:24;;;;;;;4.80;3.20;;;;;;;17.19;77.70;101679.06;6167095;23;20008;-68
2021/10/08 09:54:54;;;;;;;7.38;3.30;;;;;;;17.35;79.17;101675.94;6208307;23;20009;-68
2021/10/08 09:57:21;;;;;;;6.82;2.97;;;;;;;17.39;78.97;101675.00;6193209;23;20373;-68
2021/10/08 09:59:49;;;;;;;4.40;2.47;;;;;;;17.34;76.37;101685.50;6168213;23;20008;-68
2021/10/08 10:02:15;;;;;;;6.47;2.70;;;;;;;17.34;75.62;101672.28;6167506;23;20072;-69
2021/10/08 10:05:01;;;;;;;10.30;2.95;;;;;;;17.39;74.51;101688.22;6167409;23;20008;-68
2021/10/08 10:07:26;;;;;;;3.60;2.15;;;;;;;17.53;75.91;101675.00;6142717;23;20004;-68
2021/10/08 10:09:52;;;;;;;5.57;2.63;;;;;;;17.67;76.07;101676.97;6142537;23;20031;-68
2021/10/08 10:12:19;;;;;;;8.02;2.50;;;;;;;17.78;77.21;101672.78;6167079;23;20004;-68
2021/10/08 10:14:46;;;;;;;5.82;2.40;;;;;;;17.78;73.68;101662.41;6167385;23;20444;-69
2021/10/08 10:17:12;;;;;;;6.70;2.58;;;;;;;17.82;73.63;101668.22;6143055;23;20005;-71
2021/10/08 10:19:40;;;;;;;5.18;2.10;;;;;;;17.86;73.65;101666.47;6142588;23;20008;-68
2021/10/08 10:22:05;;;;;;;3.75;1.90;;;;;;;17.88;71.83;101666.97;6166411;23;20024;-68
2021/10/08 10:24:31;;;;;;;4.35;2.13;;;;;;;17.93;70.54;101668.84;6191963;23;20015;-69
2021/10/08 10:26:56;;;;;;;5.20;1.90;;;;;;;17.86;67.98;101672.91;6142120;23;20012;-69
2021/10/08 10:29:21;;;;;;;4.40;2.00;;;;;;;17.81;68.24;101660.97;6167389;23;20016;-70
2021/10/08 10:31:47;;;;;;;5.75;1.88;;;;;;;17.79;68.60;101666.03;6166531;23;20009;-69
2021/10/08 10:34:13;;;;;;;5.47;1.73;;;;;;;17.76;69.03;101664.66;6167359;23;20375;-67
2021/10/08 10:36:39;;;;;;;3.13;1.90;;;;;;;17.72;67.70;101657.16;6142483;23;20017;-67
2021/10/08 10:39:11;;;;;;;4.47;1.70;;;;;;;17.75;68.10;101663.00;6191357;23;20005;-67
2021/10/08 10:41:37;;;;;;;5.10;1.77;;;;;;;17.83;67.51;101656.69;6216936;23;20315;-67
2021/10/08 10:44:27;;;;;;;3.55;1.58;;;;;;;17.91;67.85;101657.88;6167215;23;20020;-67
2021/10/08 10:47:14;;;;;;;5.00;1.80;;;;;;;18.06;69.00;101651.94;6169858;23;20009;-67
2021/10/08 10:49:42;;;;;;;4.82;1.85;;;;;;;18.24;67.67;101643.63;6172094;23;20009;-67
2021/10/08 10:52:09;;;;;;;6.07;1.73;;;;;;;18.33;65.89;101644.56;6191780;23;20001;-68
2021/10/08 10:54:38;;;;;;;4.50;1.98;;;;;;;18.44;65.86;101643.16;6166289;23;20034;-67
2021/10/08 10:57:03;;;;;;;4.18;1.65;;;;;;;18.45;65.20;101647.63;6218458;23;20015;-67
2021/10/08 10:59:31;;;;;;;4.30;1.88;;;;;;;18.43;65.13;101649.06;6192104;23;20392;-68
2021/10/08 11:02:03;;;;;;;4.82;1.70;;;;;;;18.45;64.43;101643.97;6141874;23;20012;-68
2021/10/08 11:04:29;;;;;;;3.10;1.30;;;;;;;18.41;63.57;101652.19;6217096;23;20190;-67
2021/10/08 11:07:11;;;;;;;2.25;1.63;;;;;;;18.32;62.88;101648.50;6192043;23;20012;-67
2021/10/08 11:09:37;;;;;;;2.00;1.60;;;;;;;18.37;64.22;101630.69;6118573;23;20012;-67
2021/10/08 11:12:28;;;;;;;4.72;1.83;;;;;;;18.43;62.94;101627.41;6166828;23;20012;-68
2021/10/08 11:15:16;;;;;;;5.63;1.80;;;;;;;18.53;64.55;101631.94;6218150;23;20369;-67
2021/10/08 11:17:45;;;;;;;3.75;1.40;;;;;;;18.66;64.79;101630.19;6191340;23;20017;-67
2021/10/08 11:20:32;;;;;;;3.75;1.55;;;;;;;18.79;63.98;101632.13;6217130;23;20398;-67
2021/10/08 11:23:20;;;;;;;6.32;1.40;;;;;;;18.91;64.54;101623.91;6219757;23;20016;-68
2021/10/08 11:25:48;;;;;;;4.28;1.75;;;;;;;18.88;64.19;101623.72;6218309;23;20058;-67